sensor_id;sensor_type;location;lat;lon;timestamp;P1;durP1;ratioP1;P2;durP2;ratioP2
12088;SDS011;6107;49.078;8.578;2023-08-06T00:00:00;4.57;;;3.50;;
12088;SDS011;6107;49.078;8.578;2023-08-06T00:02:26;4.65;;;3.05;;
12088;SDS011;6107;49.078;8.578;2023-08-06T00:04:52;4.55;;;3.22;;
12088;SDS011;6107;49.078;8.578;2023-08-06T00:07:18;6.50;;;3.40;;
12088;SDS011;6107;49.078;8.578;2023-08-06T00:09:44;3.83;;;3.30;;
12088;SDS011;6107;49.078;8.578;2023-08-06T00:12:09;4.45;;;2.92;;
12088;SDS011;6107;49.078;8.578;2023-08-06T00:14:35;7.20;;;3.38;;
12088;SDS011;6107;49.078;8.578;2023-08-06T00:17:01;5.65;;;3.42;;
12088;SDS011;6107;49.078;8.578;2023-08-06T00:19:28;4.97;;;3.30;;
12088;SDS011;6107;49.078;8.578;2023-08-06T00:21:53;6.10;;;2.97;;
12088;SDS011;6107;49.078;8.578;2023-08-06T00:24:19;4.05;;;3.40;;
12088;SDS011;6107;49.078;8.578;2023-08-06T00:26:45;6.55;;;3.25;;
12088;SDS011;6107;49.078;8.578;2023-08-06T00:29:11;5.30;;;3.58;;
12088;SDS011;6107;49.078;8.578;2023-08-06T00:31:37;3.85;;;3.40;;
12088;SDS011;6107;49.078;8.578;2023-08-06T00:34:03;5.03;;;3.75;;
12088;SDS011;6107;49.078;8.578;2023-08-06T00:36:29;4.05;;;2.83;;
12088;SDS011;6107;49.078;8.578;2023-08-06T00:38:55;6.13;;;3.08;;
12088;SDS011;6107;49.078;8.578;2023-08-06T00:41:21;3.88;;;3.40;;
12088;SDS011;6107;49.078;8.578;2023-08-06T00:43:47;4.03;;;3.03;;
12088;SDS011;6107;49.078;8.578;2023-08-06T00:46:13;3.97;;;3.20;;
12088;SDS011;6107;49.078;8.578;2023-08-06T00:48:40;6.90;;;3.00;;
12088;SDS011;6107;49.078;8.578;2023-08-06T00:51:06;4.57;;;3.13;;
12088;SDS011;6107;49.078;8.578;2023-08-06T00:53:33;4.50;;;2.80;;
12088;SDS011;6107;49.078;8.578;2023-08-06T00:55:59;4.03;;;2.90;;
12088;SDS011;6107;49.078;8.578;2023-08-06T00:58:25;4.65;;;3.17;;
12088;SDS011;6107;49.078;8.578;2023-08-06T01:00:51;3.17;;;2.65;;
12088;SDS011;6107;49.078;8.578;2023-08-06T01:03:17;3.45;;;2.90;;
12088;SDS011;6107;49.078;8.578;2023-08-06T01:05:43;4.10;;;3.10;;
12088;SDS011;6107;49.078;8.578;2023-08-06T01:08:19;5.80;;;3.10;;
12088;SDS011;6107;49.078;8.578;2023-08-06T01:11:08;5.95;;;3.17;;
12088;SDS011;6107;49.078;8.578;2023-08-06T01:16:02;3.70;;;2.90;;
12088;SDS011;6107;49.078;8.578;2023-08-06T01:18:30;5.40;;;2.80;;
12088;SDS011;6107;49.078;8.578;2023-08-06T01:20:57;3.58;;;2.72;;
12088;SDS011;6107;49.078;8.578;2023-08-06T01:23:23;5.45;;;3.10;;
12088;SDS011;6107;49.078;8.578;2023-08-06T01:25:56;4.17;;;3.30;;
12088;SDS011;6107;49.078;8.578;2023-08-06T01:28:27;3.78;;;3.03;;
12088;SDS011;6107;49.078;8.578;2023-08-06T01:30:58;3.30;;;2.90;;
12088;SDS011;6107;49.078;8.578;2023-08-06T01:33:25;3.35;;;2.95;;
12088;SDS011;6107;49.078;8.578;2023-08-06T01:35:53;3.67;;;2.83;;
12088;SDS011;6107;49.078;8.578;2023-08-06T01:38:19;4.37;;;2.77;;
12088;SDS011;6107;49.078;8.578;2023-08-06T01:40:45;4.57;;;3.00;;
12088;SDS011;6107;49.078;8.578;2023-08-06T01:43:11;4.55;;;3.00;;
12088;SDS011;6107;49.078;8.578;2023-08-06T01:45:37;4.63;;;3.40;;
12088;SDS011;6107;49.078;8.578;2023-08-06T01:48:03;5.23;;;2.97;;
12088;SDS011;6107;49.078;8.578;2023-08-06T01:50:29;4.72;;;3.38;;
12088;SDS011;6107;49.078;8.578;2023-08-06T01:52:55;4.60;;;3.00;;
12088;SDS011;6107;49.078;8.578;2023-08-06T01:55:21;6.30;;;3.05;;
12088;SDS011;6107;49.078;8.578;2023-08-06T01:57:47;3.30;;;2.60;;
12088;SDS011;6107;49.078;8.578;2023-08-06T02:00:13;6.68;;;3.08;;
12088;SDS011;6107;49.078;8.578;2023-08-06T02:02:39;5.05;;;2.88;;
12088;SDS011;6107;49.078;8.578;2023-08-06T02:05:08;5.97;;;3.00;;
12088;SDS011;6107;49.078;8.578;2023-08-06T02:07:34;4.75;;;2.67;;
12088;SDS011;6107;49.078;8.578;2023-08-06T02:10:00;3.43;;;2.60;;
12088;SDS011;6107;49.078;8.578;2023-08-06T02:12:26;3.17;;;2.65;;
12088;SDS011;6107;49.078;8.578;2023-08-06T02:14:51;5.88;;;2.60;;
12088;SDS011;6107;49.078;8.578;2023-08-06T02:17:17;3.40;;;2.80;;
12088;SDS011;6107;49.078;8.578;2023-08-06T02:19:43;6.57;;;3.00;;
12088;SDS011;6107;49.078;8.578;2023-08-06T02:22:09;4.38;;;2.63;;
12088;SDS011;6107;49.078;8.578;2023-08-06T02:24:35;4.28;;;2.50;;
12088;SDS011;6107;49.078;8.578;2023-08-06T02:27:01;4.38;;;2.83;;
12088;SDS011;6107;49.078;8.578;2023-08-06T02:29:27;4.03;;;2.65;;
12088;SDS011;6107;49.078;8.578;2023-08-06T02:31:53;4.13;;;2.50;;
12088;SDS011;6107;49.078;8.578;2023-08-06T02:34:20;4.43;;;2.23;;
12088;SDS011;6107;49.078;8.578;2023-08-06T02:36:47;5.67;;;2.43;;
12088;SDS011;6107;49.078;8.578;2023-08-06T02:39:13;4.25;;;2.45;;
12088;SDS011;6107;49.078;8.578;2023-08-06T02:41:38;4.10;;;2.40;;
12088;SDS011;6107;49.078;8.578;2023-08-06T02:44:04;7.18;;;3.20;;
12088;SDS011;6107;49.078;8.578;2023-08-06T02:46:30;3.28;;;2.55;;
12088;SDS011;6107;49.078;8.578;2023-08-06T02:48:56;4.65;;;2.78;;
12088;SDS011;6107;49.078;8.578;2023-08-06T02:51:22;3.83;;;2.25;;
12088;SDS011;6107;49.078;8.578;2023-08-06T02:53:47;4.10;;;2.17;;
12088;SDS011;6107;49.078;8.578;2023-08-06T02:56:14;6.27;;;2.40;;
12088;SDS011;6107;49.078;8.578;2023-08-06T02:58:39;3.47;;;2.40;;
12088;SDS011;6107;49.078;8.578;2023-08-06T03:01:06;3.40;;;2.47;;
12088;SDS011;6107;49.078;8.578;2023-08-06T03:03:33;5.03;;;2.53;;
12088;SDS011;6107;49.078;8.578;2023-08-06T03:06:00;6.20;;;2.13;;
12088;SDS011;6107;49.078;8.578;2023-08-06T03:08:27;2.75;;;2.15;;
12088;SDS011;6107;49.078;8.578;2023-08-06T03:10:53;6.90;;;2.50;;
12088;SDS011;6107;49.078;8.578;2023-08-06T03:13:19;4.83;;;2.27;;
12088;SDS011;6107;49.078;8.578;2023-08-06T03:15:55;3.10;;;2.17;;
12088;SDS011;6107;49.078;8.578;2023-08-06T03:18:21;2.97;;;2.20;;
12088;SDS011;6107;49.078;8.578;2023-08-06T03:20:47;5.57;;;2.40;;
12088;SDS011;6107;49.078;8.578;2023-08-06T03:23:13;5.78;;;2.22;;
12088;SDS011;6107;49.078;8.578;2023-08-06T03:25:39;4.17;;;2.10;;
12088;SDS011;6107;49.078;8.578;2023-08-06T03:28:05;4.68;;;2.33;;
12088;SDS011;6107;49.078;8.578;2023-08-06T03:30:31;3.95;;;2.30;;
12088;SDS011;6107;49.078;8.578;2023-08-06T03:32:57;3.55;;;2.55;;
12088;SDS011;6107;49.078;8.578;2023-08-06T03:35:23;4.68;;;2.33;;
12088;SDS011;6107;49.078;8.578;2023-08-06T03:37:49;5.47;;;2.53;;
12088;SDS011;6107;49.078;8.578;2023-08-06T03:40:15;2.90;;;1.90;;
12088;SDS011;6107;49.078;8.578;2023-08-06T03:42:41;5.67;;;1.90;;
12088;SDS011;6107;49.078;8.578;2023-08-06T03:45:07;5.77;;;2.20;;
12088;SDS011;6107;49.078;8.578;2023-08-06T03:47:33;4.70;;;2.00;;
12088;SDS011;6107;49.078;8.578;2023-08-06T03:49:59;2.93;;;2.00;;
12088;SDS011;6107;49.078;8.578;2023-08-06T03:52:25;4.17;;;2.10;;
12088;SDS011;6107;49.078;8.578;2023-08-06T03:54:51;5.50;;;2.20;;
12088;SDS011;6107;49.078;8.578;2023-08-06T03:57:17;3.33;;;1.92;;
12088;SDS011;6107;49.078;8.578;2023-08-06T03:59:43;4.70;;;2.00;;
12088;SDS011;6107;49.078;8.578;2023-08-06T04:02:09;4.87;;;2.17;;
12088;SDS011;6107;49.078;8.578;2023-08-06T04:04:35;5.43;;;1.90;;
12088;SDS011;6107;49.078;8.578;2023-08-06T04:07:01;3.27;;;1.63;;
12088;SDS011;6107;49.078;8.578;2023-08-06T04:09:28;4.70;;;1.90;;
12088;SDS011;6107;49.078;8.578;2023-08-06T04:11:54;4.00;;;1.73;;
12088;SDS011;6107;49.078;8.578;2023-08-06T04:14:21;5.82;;;1.90;;
12088;SDS011;6107;49.078;8.578;2023-08-06T04:16:47;2.67;;;2.00;;
12088;SDS011;6107;49.078;8.578;2023-08-06T04:19:13;3.60;;;1.80;;
12088;SDS011;6107;49.078;8.578;2023-08-06T04:21:39;5.70;;;1.90;;
12088;SDS011;6107;49.078;8.578;2023-08-06T04:24:05;2.97;;;1.67;;
12088;SDS011;6107;49.078;8.578;2023-08-06T04:26:30;2.93;;;1.63;;
12088;SDS011;6107;49.078;8.578;2023-08-06T04:28:56;4.17;;;1.63;;
12088;SDS011;6107;49.078;8.578;2023-08-06T04:31:22;5.97;;;1.67;;
12088;SDS011;6107;49.078;8.578;2023-08-06T04:33:48;3.73;;;1.60;;
12088;SDS011;6107;49.078;8.578;2023-08-06T04:36:14;3.40;;;1.20;;
12088;SDS011;6107;49.078;8.578;2023-08-06T04:38:40;2.93;;;1.70;;
12088;SDS011;6107;49.078;8.578;2023-08-06T04:41:10;6.80;;;1.80;;
12088;SDS011;6107;49.078;8.578;2023-08-06T04:43:36;3.50;;;1.47;;
12088;SDS011;6107;49.078;8.578;2023-08-06T04:46:02;2.87;;;1.50;;
12088;SDS011;6107;49.078;8.578;2023-08-06T04:48:28;3.73;;;1.40;;
12088;SDS011;6107;49.078;8.578;2023-08-06T04:50:54;3.47;;;1.53;;
12088;SDS011;6107;49.078;8.578;2023-08-06T04:53:20;4.93;;;1.87;;
12088;SDS011;6107;49.078;8.578;2023-08-06T04:55:46;3.20;;;1.43;;
12088;SDS011;6107;49.078;8.578;2023-08-06T04:58:12;9.00;;;1.50;;
12088;SDS011;6107;49.078;8.578;2023-08-06T05:00:38;4.43;;;1.20;;
12088;SDS011;6107;49.078;8.578;2023-08-06T05:03:05;6.60;;;1.40;;
12088;SDS011;6107;49.078;8.578;2023-08-06T05:05:31;5.70;;;1.40;;
12088;SDS011;6107;49.078;8.578;2023-08-06T05:07:57;3.53;;;1.23;;
12088;SDS011;6107;49.078;8.578;2023-08-06T05:10:26;5.40;;;1.83;;
12088;SDS011;6107;49.078;8.578;2023-08-06T05:12:52;4.00;;;1.37;;
12088;SDS011;6107;49.078;8.578;2023-08-06T05:15:18;4.90;;;1.30;;
12088;SDS011;6107;49.078;8.578;2023-08-06T05:17:44;3.83;;;1.60;;
12088;SDS011;6107;49.078;8.578;2023-08-06T05:20:10;1.67;;;1.00;;
12088;SDS011;6107;49.078;8.578;2023-08-06T05:22:36;4.70;;;1.30;;
12088;SDS011;6107;49.078;8.578;2023-08-06T05:25:02;3.33;;;1.20;;
12088;SDS011;6107;49.078;8.578;2023-08-06T05:27:28;3.03;;;1.43;;
12088;SDS011;6107;49.078;8.578;2023-08-06T05:29:54;1.90;;;1.60;;
12088;SDS011;6107;49.078;8.578;2023-08-06T05:32:24;2.83;;;1.33;;
12088;SDS011;6107;49.078;8.578;2023-08-06T05:34:50;4.17;;;1.53;;
12088;SDS011;6107;49.078;8.578;2023-08-06T05:37:16;2.43;;;1.70;;
12088;SDS011;6107;49.078;8.578;2023-08-06T05:39:42;3.07;;;1.70;;
12088;SDS011;6107;49.078;8.578;2023-08-06T05:42:08;4.57;;;1.60;;
12088;SDS011;6107;49.078;8.578;2023-08-06T05:44:33;3.57;;;1.83;;
12088;SDS011;6107;49.078;8.578;2023-08-06T05:46:59;5.07;;;1.90;;
12088;SDS011;6107;49.078;8.578;2023-08-06T05:49:25;5.67;;;1.60;;
12088;SDS011;6107;49.078;8.578;2023-08-06T05:51:51;1.83;;;1.40;;
12088;SDS011;6107;49.078;8.578;2023-08-06T05:54:20;3.20;;;1.50;;
12088;SDS011;6107;49.078;8.578;2023-08-06T05:56:46;2.67;;;1.43;;
12088;SDS011;6107;49.078;8.578;2023-08-06T05:59:12;3.33;;;1.50;;
12088;SDS011;6107;49.078;8.578;2023-08-06T06:01:38;3.40;;;1.50;;
12088;SDS011;6107;49.078;8.578;2023-08-06T06:04:04;1.77;;;1.37;;
12088;SDS011;6107;49.078;8.578;2023-08-06T06:06:30;4.90;;;1.70;;
12088;SDS011;6107;49.078;8.578;2023-08-06T06:08:56;8.23;;;1.50;;
12088;SDS011;6107;49.078;8.578;2023-08-06T06:11:22;1.80;;;1.20;;
12088;SDS011;6107;49.078;8.578;2023-08-06T06:13:50;3.27;;;1.40;;
12088;SDS011;6107;49.078;8.578;2023-08-06T06:16:16;2.63;;;1.33;;
12088;SDS011;6107;49.078;8.578;2023-08-06T06:18:43;3.17;;;1.40;;
12088;SDS011;6107;49.078;8.578;2023-08-06T06:21:09;4.47;;;2.03;;
12088;SDS011;6107;49.078;8.578;2023-08-06T06:23:35;4.47;;;1.53;;
12088;SDS011;6107;49.078;8.578;2023-08-06T06:26:01;3.20;;;1.20;;
12088;SDS011;6107;49.078;8.578;2023-08-06T06:28:27;3.00;;;0.90;;
12088;SDS011;6107;49.078;8.578;2023-08-06T06:30:53;4.13;;;1.70;;
12088;SDS011;6107;49.078;8.578;2023-08-06T06:33:19;2.93;;;1.30;;
12088;SDS011;6107;49.078;8.578;2023-08-06T06:35:45;1.90;;;0.90;;
12088;SDS011;6107;49.078;8.578;2023-08-06T06:38:11;1.50;;;1.00;;
12088;SDS011;6107;49.078;8.578;2023-08-06T06:40:37;2.83;;;1.30;;
12088;SDS011;6107;49.078;8.578;2023-08-06T06:43:03;1.73;;;1.00;;
12088;SDS011;6107;49.078;8.578;2023-08-06T06:45:29;2.37;;;0.80;;
12088;SDS011;6107;49.078;8.578;2023-08-06T06:47:55;1.73;;;0.80;;
12088;SDS011;6107;49.078;8.578;2023-08-06T06:50:21;2.77;;;0.90;;
12088;SDS011;6107;49.078;8.578;2023-08-06T06:52:47;2.50;;;0.60;;
12088;SDS011;6107;49.078;8.578;2023-08-06T06:55:12;0.97;;;0.80;;
12088;SDS011;6107;49.078;8.578;2023-08-06T06:57:38;1.73;;;0.70;;
12088;SDS011;6107;49.078;8.578;2023-08-06T07:00:05;1.13;;;0.77;;
12088;SDS011;6107;49.078;8.578;2023-08-06T07:02:31;2.07;;;0.80;;
12088;SDS011;6107;49.078;8.578;2023-08-06T07:04:57;1.07;;;0.80;;
12088;SDS011;6107;49.078;8.578;2023-08-06T07:07:23;1.07;;;0.80;;
12088;SDS011;6107;49.078;8.578;2023-08-06T07:09:48;1.83;;;0.80;;
12088;SDS011;6107;49.078;8.578;2023-08-06T07:12:14;1.13;;;0.80;;
12088;SDS011;6107;49.078;8.578;2023-08-06T07:14:40;1.53;;;0.73;;
12088;SDS011;6107;49.078;8.578;2023-08-06T07:17:06;3.07;;;1.00;;
12088;SDS011;6107;49.078;8.578;2023-08-06T07:19:32;2.13;;;0.77;;
12088;SDS011;6107;49.078;8.578;2023-08-06T07:21:58;1.70;;;0.80;;
12088;SDS011;6107;49.078;8.578;2023-08-06T07:24:24;2.27;;;0.93;;
12088;SDS011;6107;49.078;8.578;2023-08-06T07:26:52;1.97;;;0.87;;
12088;SDS011;6107;49.078;8.578;2023-08-06T07:29:18;1.10;;;1.00;;
12088;SDS011;6107;49.078;8.578;2023-08-06T07:31:46;1.90;;;0.80;;
12088;SDS011;6107;49.078;8.578;2023-08-06T07:34:15;0.87;;;0.80;;
12088;SDS011;6107;49.078;8.578;2023-08-06T07:36:43;1.37;;;1.00;;
12088;SDS011;6107;49.078;8.578;2023-08-06T07:39:12;0.67;;;0.67;;
12088;SDS011;6107;49.078;8.578;2023-08-06T07:41:38;1.20;;;0.80;;
12088;SDS011;6107;49.078;8.578;2023-08-06T07:44:05;1.00;;;0.73;;
12088;SDS011;6107;49.078;8.578;2023-08-06T07:46:31;1.40;;;0.60;;
12088;SDS011;6107;49.078;8.578;2023-08-06T07:48:57;0.67;;;0.60;;
12088;SDS011;6107;49.078;8.578;2023-08-06T07:51:23;1.97;;;1.07;;
12088;SDS011;6107;49.078;8.578;2023-08-06T07:53:49;0.57;;;0.50;;
12088;SDS011;6107;49.078;8.578;2023-08-06T07:56:15;1.37;;;0.70;;
12088;SDS011;6107;49.078;8.578;2023-08-06T07:58:41;1.93;;;0.63;;
12088;SDS011;6107;49.078;8.578;2023-08-06T08:01:07;1.73;;;0.70;;
12088;SDS011;6107;49.078;8.578;2023-08-06T08:03:33;1.43;;;0.80;;
12088;SDS011;6107;49.078;8.578;2023-08-06T08:05:58;1.27;;;0.60;;
12088;SDS011;6107;49.078;8.578;2023-08-06T08:08:24;0.97;;;0.57;;
12088;SDS011;6107;49.078;8.578;2023-08-06T08:10:51;2.70;;;0.77;;
12088;SDS011;6107;49.078;8.578;2023-08-06T08:13:17;1.30;;;0.63;;
12088;SDS011;6107;49.078;8.578;2023-08-06T08:15:43;2.23;;;0.70;;
12088;SDS011;6107;49.078;8.578;2023-08-06T08:18:09;1.20;;;0.80;;
12088;SDS011;6107;49.078;8.578;2023-08-06T08:20:35;1.40;;;0.93;;
12088;SDS011;6107;49.078;8.578;2023-08-06T08:23:01;0.67;;;0.67;;
12088;SDS011;6107;49.078;8.578;2023-08-06T08:25:27;0.63;;;0.50;;
12088;SDS011;6107;49.078;8.578;2023-08-06T08:27:54;0.60;;;0.60;;
12088;SDS011;6107;49.078;8.578;2023-08-06T08:30:20;0.77;;;0.77;;
12088;SDS011;6107;49.078;8.578;2023-08-06T08:32:46;0.57;;;0.40;;
12088;SDS011;6107;49.078;8.578;2023-08-06T08:35:13;0.53;;;0.33;;
12088;SDS011;6107;49.078;8.578;2023-08-06T08:37:41;0.43;;;0.43;;
12088;SDS011;6107;49.078;8.578;2023-08-06T08:40:07;0.57;;;0.50;;
12088;SDS011;6107;49.078;8.578;2023-08-06T08:42:33;2.00;;;0.60;;
12088;SDS011;6107;49.078;8.578;2023-08-06T08:45:00;1.60;;;0.80;;
12088;SDS011;6107;49.078;8.578;2023-08-06T08:47:26;1.97;;;0.73;;
12088;SDS011;6107;49.078;8.578;2023-08-06T08:49:52;1.10;;;0.73;;
12088;SDS011;6107;49.078;8.578;2023-08-06T08:52:22;2.30;;;1.23;;
12088;SDS011;6107;49.078;8.578;2023-08-06T08:54:49;1.93;;;0.70;;
12088;SDS011;6107;49.078;8.578;2023-08-06T08:57:17;1.57;;;0.87;;
12088;SDS011;6107;49.078;8.578;2023-08-06T08:59:46;1.20;;;0.90;;
12088;SDS011;6107;49.078;8.578;2023-08-06T09:02:12;1.27;;;0.87;;
12088;SDS011;6107;49.078;8.578;2023-08-06T09:04:39;1.50;;;1.10;;
12088;SDS011;6107;49.078;8.578;2023-08-06T09:07:05;1.67;;;0.90;;
12088;SDS011;6107;49.078;8.578;2023-08-06T09:09:34;1.60;;;0.80;;
12088;SDS011;6107;49.078;8.578;2023-08-06T09:12:06;3.23;;;1.37;;
12088;SDS011;6107;49.078;8.578;2023-08-06T09:14:34;0.90;;;0.90;;
12088;SDS011;6107;49.078;8.578;2023-08-06T09:17:01;0.83;;;0.73;;
12088;SDS011;6107;49.078;8.578;2023-08-06T09:19:27;1.80;;;0.82;;
12088;SDS011;6107;49.078;8.578;2023-08-06T09:21:54;1.35;;;0.82;;
12088;SDS011;6107;49.078;8.578;2023-08-06T09:24:21;0.52;;;0.52;;
12088;SDS011;6107;49.078;8.578;2023-08-06T09:26:47;0.50;;;0.50;;
12088;SDS011;6107;49.078;8.578;2023-08-06T09:29:15;1.55;;;0.90;;
12088;SDS011;6107;49.078;8.578;2023-08-06T09:31:42;1.30;;;0.52;;
12088;SDS011;6107;49.078;8.578;2023-08-06T09:36:41;1.60;;;0.82;;
12088;SDS011;6107;49.078;8.578;2023-08-06T09:39:12;1.00;;;0.80;;
12088;SDS011;6107;49.078;8.578;2023-08-06T09:41:38;0.65;;;0.50;;
12088;SDS011;6107;49.078;8.578;2023-08-06T09:44:04;2.67;;;1.15;;
12088;SDS011;6107;49.078;8.578;2023-08-06T09:46:31;1.15;;;0.65;;
12088;SDS011;6107;49.078;8.578;2023-08-06T09:48:58;0.60;;;0.60;;
12088;SDS011;6107;49.078;8.578;2023-08-06T09:51:24;0.70;;;0.70;;
12088;SDS011;6107;49.078;8.578;2023-08-06T09:53:50;1.42;;;0.90;;
12088;SDS011;6107;49.078;8.578;2023-08-06T09:56:17;1.45;;;0.90;;
12088;SDS011;6107;49.078;8.578;2023-08-06T09:58:43;1.15;;;0.82;;
12088;SDS011;6107;49.078;8.578;2023-08-06T10:01:09;4.57;;;1.13;;
12088;SDS011;6107;49.078;8.578;2023-08-06T10:03:37;1.20;;;0.77;;
12088;SDS011;6107;49.078;8.578;2023-08-06T10:06:04;2.08;;;0.80;;
12088;SDS011;6107;49.078;8.578;2023-08-06T10:08:32;0.93;;;0.50;;
12088;SDS011;6107;49.078;8.578;2023-08-06T10:10:58;1.10;;;0.60;;
12088;SDS011;6107;49.078;8.578;2023-08-06T10:13:25;0.85;;;0.70;;
12088;SDS011;6107;49.078;8.578;2023-08-06T10:15:51;0.70;;;0.60;;
12088;SDS011;6107;49.078;8.578;2023-08-06T10:18:17;4.90;;;1.50;;
12088;SDS011;6107;49.078;8.578;2023-08-06T10:20:46;0.50;;;0.50;;
12088;SDS011;6107;49.078;8.578;2023-08-06T10:23:12;0.70;;;0.60;;
12088;SDS011;6107;49.078;8.578;2023-08-06T10:25:42;1.38;;;0.98;;
12088;SDS011;6107;49.078;8.578;2023-08-06T10:28:09;0.70;;;0.70;;
12088;SDS011;6107;49.078;8.578;2023-08-06T10:30:41;1.03;;;0.80;;
12088;SDS011;6107;49.078;8.578;2023-08-06T10:33:07;1.23;;;0.73;;
12088;SDS011;6107;49.078;8.578;2023-08-06T10:35:37;0.80;;;0.80;;
12088;SDS011;6107;49.078;8.578;2023-08-06T10:40:29;2.57;;;1.07;;
12088;SDS011;6107;49.078;8.578;2023-08-06T10:42:58;1.20;;;1.10;;
12088;SDS011;6107;49.078;8.578;2023-08-06T10:45:24;1.27;;;1.17;;
12088;SDS011;6107;49.078;8.578;2023-08-06T10:47:53;1.93;;;1.20;;
12088;SDS011;6107;49.078;8.578;2023-08-06T10:50:20;0.80;;;0.80;;
12088;SDS011;6107;49.078;8.578;2023-08-06T10:52:46;1.80;;;1.10;;
12088;SDS011;6107;49.078;8.578;2023-08-06T10:55:15;1.60;;;1.33;;
12088;SDS011;6107;49.078;8.578;2023-08-06T10:57:47;1.30;;;1.20;;
12088;SDS011;6107;49.078;8.578;2023-08-06T11:00:14;2.93;;;1.60;;
12088;SDS011;6107;49.078;8.578;2023-08-06T11:02:40;4.23;;;1.67;;
12088;SDS011;6107;49.078;8.578;2023-08-06T11:05:06;2.17;;;1.53;;
12088;SDS011;6107;49.078;8.578;2023-08-06T11:07:32;3.20;;;1.60;;
12088;SDS011;6107;49.078;8.578;2023-08-06T11:10:02;2.57;;;1.77;;
12088;SDS011;6107;49.078;8.578;2023-08-06T11:12:28;2.53;;;1.73;;
12088;SDS011;6107;49.078;8.578;2023-08-06T11:14:54;3.40;;;1.70;;
12088;SDS011;6107;49.078;8.578;2023-08-06T11:17:21;2.93;;;1.70;;
12088;SDS011;6107;49.078;8.578;2023-08-06T11:19:47;3.37;;;1.77;;
12088;SDS011;6107;49.078;8.578;2023-08-06T11:22:14;3.73;;;1.73;;
12088;SDS011;6107;49.078;8.578;2023-08-06T11:24:40;2.00;;;1.60;;
12088;SDS011;6107;49.078;8.578;2023-08-06T11:27:12;3.27;;;2.00;;
12088;SDS011;6107;49.078;8.578;2023-08-06T11:29:39;5.17;;;2.07;;
12088;SDS011;6107;49.078;8.578;2023-08-06T11:32:06;3.00;;;2.10;;
12088;SDS011;6107;49.078;8.578;2023-08-06T11:34:32;2.87;;;1.90;;
12088;SDS011;6107;49.078;8.578;2023-08-06T11:36:58;2.73;;;1.70;;
12088;SDS011;6107;49.078;8.578;2023-08-06T11:39:24;5.33;;;2.43;;
12088;SDS011;6107;49.078;8.578;2023-08-06T11:41:50;3.50;;;2.47;;
12088;SDS011;6107;49.078;8.578;2023-08-06T11:44:18;2.93;;;2.27;;
12088;SDS011;6107;49.078;8.578;2023-08-06T11:46:53;3.23;;;2.03;;
12088;SDS011;6107;49.078;8.578;2023-08-06T11:49:36;5.23;;;2.17;;
12088;SDS011;6107;49.078;8.578;2023-08-06T11:52:38;5.63;;;3.10;;
12088;SDS011;6107;49.078;8.578;2023-08-06T11:57:31;3.93;;;2.53;;
12088;SDS011;6107;49.078;8.578;2023-08-06T12:00:01;7.00;;;2.20;;
12088;SDS011;6107;49.078;8.578;2023-08-06T12:02:30;3.23;;;2.07;;
12088;SDS011;6107;49.078;8.578;2023-08-06T12:05:33;4.27;;;2.50;;
12088;SDS011;6107;49.078;8.578;2023-08-06T12:07:53;3.30;;;2.20;;
12088;SDS011;6107;49.078;8.578;2023-08-06T12:10:19;5.30;;;2.63;;
12088;SDS011;6107;49.078;8.578;2023-08-06T12:12:45;6.37;;;2.60;;
12088;SDS011;6107;49.078;8.578;2023-08-06T12:15:12;5.30;;;2.30;;
12088;SDS011;6107;49.078;8.578;2023-08-06T12:17:38;4.20;;;2.67;;
12088;SDS011;6107;49.078;8.578;2023-08-06T12:20:04;4.10;;;2.43;;
12088;SDS011;6107;49.078;8.578;2023-08-06T12:22:31;4.70;;;2.43;;
12088;SDS011;6107;49.078;8.578;2023-08-06T12:25:18;4.83;;;2.67;;
12088;SDS011;6107;49.078;8.578;2023-08-06T12:27:44;5.40;;;2.87;;
12088;SDS011;6107;49.078;8.578;2023-08-06T12:30:11;4.07;;;2.40;;
12088;SDS011;6107;49.078;8.578;2023-08-06T12:32:38;4.07;;;2.40;;
12088;SDS011;6107;49.078;8.578;2023-08-06T12:35:04;5.97;;;2.73;;
12088;SDS011;6107;49.078;8.578;2023-08-06T12:37:32;5.33;;;2.67;;
12088;SDS011;6107;49.078;8.578;2023-08-06T12:39:58;4.47;;;2.80;;
12088;SDS011;6107;49.078;8.578;2023-08-06T12:42:24;5.40;;;3.20;;
12088;SDS011;6107;49.078;8.578;2023-08-06T12:44:50;3.47;;;2.37;;
12088;SDS011;6107;49.078;8.578;2023-08-06T12:47:17;7.53;;;5.80;;
12088;SDS011;6107;49.078;8.578;2023-08-06T12:49:43;4.30;;;2.33;;
12088;SDS011;6107;49.078;8.578;2023-08-06T12:52:09;5.60;;;2.70;;
12088;SDS011;6107;49.078;8.578;2023-08-06T12:54:37;5.43;;;2.97;;
12088;SDS011;6107;49.078;8.578;2023-08-06T12:57:03;2.63;;;2.00;;
12088;SDS011;6107;49.078;8.578;2023-08-06T12:59:30;3.90;;;2.10;;
12088;SDS011;6107;49.078;8.578;2023-08-06T13:01:56;5.87;;;3.80;;
12088;SDS011;6107;49.078;8.578;2023-08-06T13:04:22;2.70;;;2.00;;
12088;SDS011;6107;49.078;8.578;2023-08-06T13:06:48;2.70;;;1.90;;
12088;SDS011;6107;49.078;8.578;2023-08-06T13:09:14;3.23;;;1.80;;
12088;SDS011;6107;49.078;8.578;2023-08-06T13:11:40;5.07;;;2.70;;
12088;SDS011;6107;49.078;8.578;2023-08-06T13:14:10;2.53;;;1.70;;
12088;SDS011;6107;49.078;8.578;2023-08-06T13:16:37;3.87;;;1.50;;
12088;SDS011;6107;49.078;8.578;2023-08-06T13:19:04;2.97;;;1.67;;
12088;SDS011;6107;49.078;8.578;2023-08-06T13:21:31;4.23;;;1.50;;
12088;SDS011;6107;49.078;8.578;2023-08-06T13:23:58;2.10;;;1.20;;
12088;SDS011;6107;49.078;8.578;2023-08-06T13:26:23;2.20;;;1.23;;
12088;SDS011;6107;49.078;8.578;2023-08-06T13:28:49;2.47;;;1.30;;
12088;SDS011;6107;49.078;8.578;2023-08-06T13:31:15;1.07;;;0.90;;
12088;SDS011;6107;49.078;8.578;2023-08-06T13:33:42;2.28;;;0.95;;
12088;SDS011;6107;49.078;8.578;2023-08-06T13:36:08;1.17;;;1.07;;
12088;SDS011;6107;49.078;8.578;2023-08-06T13:38:33;1.10;;;0.77;;
12088;SDS011;6107;49.078;8.578;2023-08-06T13:41:00;0.98;;;0.90;;
12088;SDS011;6107;49.078;8.578;2023-08-06T13:43:27;1.15;;;0.90;;
12088;SDS011;6107;49.078;8.578;2023-08-06T13:45:53;1.85;;;0.82;;
12088;SDS011;6107;49.078;8.578;2023-08-06T13:48:19;1.07;;;0.97;;
12088;SDS011;6107;49.078;8.578;2023-08-06T13:50:45;1.80;;;0.93;;
12088;SDS011;6107;49.078;8.578;2023-08-06T13:53:11;1.20;;;1.10;;
12088;SDS011;6107;49.078;8.578;2023-08-06T13:55:37;2.20;;;0.95;;
12088;SDS011;6107;49.078;8.578;2023-08-06T13:58:03;1.60;;;1.13;;
12088;SDS011;6107;49.078;8.578;2023-08-06T14:00:29;2.17;;;1.33;;
12088;SDS011;6107;49.078;8.578;2023-08-06T14:02:55;1.40;;;1.20;;
12088;SDS011;6107;49.078;8.578;2023-08-06T14:05:21;1.40;;;1.03;;
12088;SDS011;6107;49.078;8.578;2023-08-06T14:07:47;1.10;;;0.95;;
12088;SDS011;6107;49.078;8.578;2023-08-06T14:10:13;2.30;;;1.02;;
12088;SDS011;6107;49.078;8.578;2023-08-06T14:12:39;2.47;;;1.23;;
12088;SDS011;6107;49.078;8.578;2023-08-06T14:15:05;1.35;;;1.25;;
12088;SDS011;6107;49.078;8.578;2023-08-06T14:17:31;1.50;;;1.10;;
12088;SDS011;6107;49.078;8.578;2023-08-06T14:19:57;1.70;;;1.10;;
12088;SDS011;6107;49.078;8.578;2023-08-06T14:22:25;1.30;;;1.20;;
12088;SDS011;6107;49.078;8.578;2023-08-06T14:24:51;1.38;;;1.02;;
12088;SDS011;6107;49.078;8.578;2023-08-06T14:27:18;2.65;;;1.20;;
12088;SDS011;6107;49.078;8.578;2023-08-06T14:29:44;1.90;;;1.30;;
12088;SDS011;6107;49.078;8.578;2023-08-06T14:32:10;1.20;;;1.10;;
12088;SDS011;6107;49.078;8.578;2023-08-06T14:34:36;3.40;;;1.17;;
12088;SDS011;6107;49.078;8.578;2023-08-06T14:37:02;2.63;;;1.30;;
12088;SDS011;6107;49.078;8.578;2023-08-06T14:39:28;1.70;;;1.10;;
12088;SDS011;6107;49.078;8.578;2023-08-06T14:41:54;0.90;;;0.90;;
12088;SDS011;6107;49.078;8.578;2023-08-06T14:44:19;1.65;;;1.33;;
12088;SDS011;6107;49.078;8.578;2023-08-06T14:46:45;2.30;;;1.00;;
12088;SDS011;6107;49.078;8.578;2023-08-06T14:49:11;2.70;;;2.47;;
12088;SDS011;6107;49.078;8.578;2023-08-06T14:51:37;2.60;;;1.30;;
12088;SDS011;6107;49.078;8.578;2023-08-06T14:54:04;2.55;;;1.15;;
12088;SDS011;6107;49.078;8.578;2023-08-06T14:56:29;1.55;;;1.20;;
12088;SDS011;6107;49.078;8.578;2023-08-06T14:58:55;1.30;;;1.20;;
12088;SDS011;6107;49.078;8.578;2023-08-06T15:01:25;3.67;;;1.50;;
12088;SDS011;6107;49.078;8.578;2023-08-06T15:03:51;4.25;;;1.40;;
12088;SDS011;6107;49.078;8.578;2023-08-06T15:06:17;1.25;;;1.15;;